Ostby, North Dakota
Current Conditions -  °F | °C
As of 8:35 AM on Tuesday 21 Oct 2014 (Local Time) from KRUG Reporting Station
Clear Clear  
Wind Chill: 41°   Ceiling: Unl
Heat Index: 46°   Visibility: 10mi
Dew Point: 39°   Wind: 13mph
Humidity: 76%   Direction: 140°SE
Pressure: 29.86"   Gusts: 18mph
Location:  48.5496°N, 100.255°W
Report Text: KRUG 211335Z AUTO 14011G16KT 10SM CLR 08/04 A2986 RMK AO2
Loading
Personal Weather Stations






























Interactive Weather Map New forecast layout! Learn more

10-Day Weather Forecast

Advertisements
Track Severe Weather on mobile